sensor_id;sensor_type;location;lat;lon;timestamp;temperature;humidity
770;DHT22;368;48.698;9.116;2023-05-21T00:02:20;15.60;99.90
770;DHT22;368;48.698;9.116;2023-05-21T00:04:47;15.50;99.90
770;DHT22;368;48.698;9.116;2023-05-21T00:07:17;15.40;99.90
770;DHT22;368;48.698;9.116;2023-05-21T00:09:44;15.60;99.90
770;DHT22;368;48.698;9.116;2023-05-21T00:12:11;15.30;99.90
770;DHT22;368;48.698;9.116;2023-05-21T00:14:38;15.40;99.90
770;DHT22;368;48.698;9.116;2023-05-21T00:17:05;15.00;99.90
770;DHT22;368;48.698;9.116;2023-05-21T00:19:32;15.20;99.90
770;DHT22;368;48.698;9.116;2023-05-21T00:21:58;15.10;99.90
770;DHT22;368;48.698;9.116;2023-05-21T00:24:29;15.30;99.90
770;DHT22;368;48.698;9.116;2023-05-21T00:26:56;15.40;99.90
770;DHT22;368;48.698;9.116;2023-05-21T00:29:23;15.30;99.90
770;DHT22;368;48.698;9.116;2023-05-21T00:31:51;15.10;99.90
770;DHT22;368;48.698;9.116;2023-05-21T00:34:18;15.30;99.90
770;DHT22;368;48.698;9.116;2023-05-21T00:36:45;15.10;99.90
770;DHT22;368;48.698;9.116;2023-05-21T00:39:12;15.10;99.90
770;DHT22;368;48.698;9.116;2023-05-21T00:41:40;15.20;99.90
770;DHT22;368;48.698;9.116;2023-05-21T00:44:07;15.10;99.90
770;DHT22;368;48.698;9.116;2023-05-21T00:46:34;15.00;99.90
770;DHT22;368;48.698;9.116;2023-05-21T00:49:01;15.10;99.90
770;DHT22;368;48.698;9.116;2023-05-21T00:51:28;15.20;99.90
770;DHT22;368;48.698;9.116;2023-05-21T00:53:56;15.00;99.90
770;DHT22;368;48.698;9.116;2023-05-21T00:56:23;15.20;99.90
770;DHT22;368;48.698;9.116;2023-05-21T00:58:53;15.40;99.90
770;DHT22;368;48.698;9.116;2023-05-21T01:01:21;15.30;99.90
770;DHT22;368;48.698;9.116;2023-05-21T01:03:50;15.10;99.90
770;DHT22;368;48.698;9.116;2023-05-21T01:06:18;15.10;99.90
770;DHT22;368;48.698;9.116;2023-05-21T01:08:45;14.90;99.90
770;DHT22;368;48.698;9.116;2023-05-21T01:11:13;14.80;99.90
770;DHT22;368;48.698;9.116;2023-05-21T01:13:41;14.90;99.90
770;DHT22;368;48.698;9.116;2023-05-21T01:16:09;15.00;99.90
770;DHT22;368;48.698;9.116;2023-05-21T01:18:38;15.20;99.90
770;DHT22;368;48.698;9.116;2023-05-21T01:21:07;15.10;99.90
770;DHT22;368;48.698;9.116;2023-05-21T01:23:36;14.90;99.90
770;DHT22;368;48.698;9.116;2023-05-21T01:26:03;15.10;99.90
770;DHT22;368;48.698;9.116;2023-05-21T01:28:29;15.20;99.90
770;DHT22;368;48.698;9.116;2023-05-21T01:30:59;14.90;99.90
770;DHT22;368;48.698;9.116;2023-05-21T01:33:34;15.10;99.90
770;DHT22;368;48.698;9.116;2023-05-21T01:36:07;15.00;99.90
770;DHT22;368;48.698;9.116;2023-05-21T01:38:42;14.90;99.90
770;DHT22;368;48.698;9.116;2023-05-21T01:41:17;14.90;99.90
770;DHT22;368;48.698;9.116;2023-05-21T01:43:45;14.90;99.90
770;DHT22;368;48.698;9.116;2023-05-21T01:46:16;14.60;99.90
770;DHT22;368;48.698;9.116;2023-05-21T01:48:43;14.70;99.90
770;DHT22;368;48.698;9.116;2023-05-21T01:51:10;14.90;99.90
770;DHT22;368;48.698;9.116;2023-05-21T01:53:37;14.70;99.90
770;DHT22;368;48.698;9.116;2023-05-21T01:56:06;14.90;99.90
770;DHT22;368;48.698;9.116;2023-05-21T01:58:33;14.50;99.90
770;DHT22;368;48.698;9.116;2023-05-21T02:01:00;14.90;99.90
770;DHT22;368;48.698;9.116;2023-05-21T02:03:29;14.80;99.90
770;DHT22;368;48.698;9.116;2023-05-21T02:05:56;14.90;99.90
770;DHT22;368;48.698;9.116;2023-05-21T02:08:22;14.60;99.90
770;DHT22;368;48.698;9.116;2023-05-21T02:10:50;14.70;99.90
770;DHT22;368;48.698;9.116;2023-05-21T02:13:18;14.70;99.90
770;DHT22;368;48.698;9.116;2023-05-21T02:15:46;14.60;99.90
770;DHT22;368;48.698;9.116;2023-05-21T02:18:13;14.60;99.90
770;DHT22;368;48.698;9.116;2023-05-21T02:20:41;14.40;99.90
770;DHT22;368;48.698;9.116;2023-05-21T02:23:08;14.70;99.90
770;DHT22;368;48.698;9.116;2023-05-21T02:25:35;14.60;99.90
770;DHT22;368;48.698;9.116;2023-05-21T02:28:02;14.50;99.90
770;DHT22;368;48.698;9.116;2023-05-21T02:30:30;14.40;99.90
770;DHT22;368;48.698;9.116;2023-05-21T02:32:56;14.60;99.90
770;DHT22;368;48.698;9.116;2023-05-21T02:35:25;14.60;99.90
770;DHT22;368;48.698;9.116;2023-05-21T02:37:52;14.50;99.90
770;DHT22;368;48.698;9.116;2023-05-21T02:40:23;14.40;99.90
770;DHT22;368;48.698;9.116;2023-05-21T02:42:50;14.50;99.90
770;DHT22;368;48.698;9.116;2023-05-21T02:45:17;14.50;99.90
770;DHT22;368;48.698;9.116;2023-05-21T02:47:45;14.60;99.90
770;DHT22;368;48.698;9.116;2023-05-21T02:50:13;14.40;99.90
770;DHT22;368;48.698;9.116;2023-05-21T02:52:40;14.60;99.90
770;DHT22;368;48.698;9.116;2023-05-21T02:55:08;14.40;99.90
770;DHT22;368;48.698;9.116;2023-05-21T02:57:34;14.30;99.90
770;DHT22;368;48.698;9.116;2023-05-21T03:00:02;14.30;99.90
770;DHT22;368;48.698;9.116;2023-05-21T03:02:30;14.60;99.90
770;DHT22;368;48.698;9.116;2023-05-21T03:04:58;14.40;99.90
770;DHT22;368;48.698;9.116;2023-05-21T03:07:25;14.60;99.90
770;DHT22;368;48.698;9.116;2023-05-21T03:09:52;14.30;99.90
770;DHT22;368;48.698;9.116;2023-05-21T03:12:19;14.40;99.90
770;DHT22;368;48.698;9.116;2023-05-21T03:14:45;14.20;99.90
770;DHT22;368;48.698;9.116;2023-05-21T03:17:12;14.40;99.90
770;DHT22;368;48.698;9.116;2023-05-21T03:19:40;14.50;99.90
770;DHT22;368;48.698;9.116;2023-05-21T03:22:08;14.40;99.90
770;DHT22;368;48.698;9.116;2023-05-21T03:24:36;14.50;99.90
770;DHT22;368;48.698;9.116;2023-05-21T03:27:03;14.40;99.90
770;DHT22;368;48.698;9.116;2023-05-21T03:29:31;14.00;99.90
770;DHT22;368;48.698;9.116;2023-05-21T03:31:58;14.00;99.90
770;DHT22;368;48.698;9.116;2023-05-21T03:34:25;14.20;99.90
770;DHT22;368;48.698;9.116;2023-05-21T03:36:52;14.10;99.90
770;DHT22;368;48.698;9.116;2023-05-21T03:39:20;14.10;99.90
770;DHT22;368;48.698;9.116;2023-05-21T03:41:47;14.00;99.90
770;DHT22;368;48.698;9.116;2023-05-21T03:44:14;13.80;99.90
770;DHT22;368;48.698;9.116;2023-05-21T03:46:40;13.60;99.90
770;DHT22;368;48.698;9.116;2023-05-21T03:49:09;13.30;99.90
770;DHT22;368;48.698;9.116;2023-05-21T03:51:36;13.40;99.90
770;DHT22;368;48.698;9.116;2023-05-21T03:54:04;13.10;99.90
770;DHT22;368;48.698;9.116;2023-05-21T03:56:32;13.30;99.90
770;DHT22;368;48.698;9.116;2023-05-21T03:58:59;13.40;99.90
770;DHT22;368;48.698;9.116;2023-05-21T04:01:25;13.20;99.90
770;DHT22;368;48.698;9.116;2023-05-21T04:03:53;13.30;99.90
770;DHT22;368;48.698;9.116;2023-05-21T04:06:20;13.40;99.90
770;DHT22;368;48.698;9.116;2023-05-21T04:08:47;13.40;99.90
770;DHT22;368;48.698;9.116;2023-05-21T04:11:13;13.40;99.90
770;DHT22;368;48.698;9.116;2023-05-21T04:13:42;13.60;99.90
770;DHT22;368;48.698;9.116;2023-05-21T04:16:08;13.80;99.90
770;DHT22;368;48.698;9.116;2023-05-21T04:18:38;13.80;99.90
770;DHT22;368;48.698;9.116;2023-05-21T04:21:05;13.70;99.90
770;DHT22;368;48.698;9.116;2023-05-21T04:23:34;14.00;99.90
770;DHT22;368;48.698;9.116;2023-05-21T04:26:01;13.90;99.90
770;DHT22;368;48.698;9.116;2023-05-21T04:28:29;14.10;99.90
770;DHT22;368;48.698;9.116;2023-05-21T04:30:57;14.00;99.90
770;DHT22;368;48.698;9.116;2023-05-21T04:33:24;14.30;99.90
770;DHT22;368;48.698;9.116;2023-05-21T04:35:51;13.90;99.90
770;DHT22;368;48.698;9.116;2023-05-21T04:38:18;14.10;99.90
770;DHT22;368;48.698;9.116;2023-05-21T04:40:45;14.20;99.90
770;DHT22;368;48.698;9.116;2023-05-21T04:43:12;14.20;99.90
770;DHT22;368;48.698;9.116;2023-05-21T04:45:41;14.10;99.90
770;DHT22;368;48.698;9.116;2023-05-21T04:48:11;14.20;99.90
770;DHT22;368;48.698;9.116;2023-05-21T04:50:40;14.30;99.90
770;DHT22;368;48.698;9.116;2023-05-21T04:53:06;14.20;99.90
770;DHT22;368;48.698;9.116;2023-05-21T04:55:33;14.00;99.90
770;DHT22;368;48.698;9.116;2023-05-21T04:58:04;13.90;99.90
770;DHT22;368;48.698;9.116;2023-05-21T05:00:31;13.90;99.90
770;DHT22;368;48.698;9.116;2023-05-21T05:02:58;13.80;99.90
770;DHT22;368;48.698;9.116;2023-05-21T05:05:26;13.70;99.90
770;DHT22;368;48.698;9.116;2023-05-21T05:07:52;13.80;99.90
770;DHT22;368;48.698;9.116;2023-05-21T05:10:20;14.10;99.90
770;DHT22;368;48.698;9.116;2023-05-21T05:12:47;14.00;99.90
770;DHT22;368;48.698;9.116;2023-05-21T05:15:14;13.90;99.90
770;DHT22;368;48.698;9.116;2023-05-21T05:17:41;14.10;99.90
770;DHT22;368;48.698;9.116;2023-05-21T05:20:09;14.10;99.90
770;DHT22;368;48.698;9.116;2023-05-21T05:22:38;14.30;99.90
770;DHT22;368;48.698;9.116;2023-05-21T05:25:05;14.30;99.90
770;DHT22;368;48.698;9.116;2023-05-21T05:27:32;14.30;99.90
770;DHT22;368;48.698;9.116;2023-05-21T05:29:59;14.40;99.90
770;DHT22;368;48.698;9.116;2023-05-21T05:32:26;14.50;99.90
770;DHT22;368;48.698;9.116;2023-05-21T05:34:52;14.60;99.90
770;DHT22;368;48.698;9.116;2023-05-21T05:37:19;14.60;99.90
770;DHT22;368;48.698;9.116;2023-05-21T05:39:47;14.90;99.90
770;DHT22;368;48.698;9.116;2023-05-21T05:42:14;15.10;99.90
770;DHT22;368;48.698;9.116;2023-05-21T05:44:41;15.30;99.90
770;DHT22;368;48.698;9.116;2023-05-21T05:47:07;15.20;99.90
770;DHT22;368;48.698;9.116;2023-05-21T05:49:35;15.60;99.90
770;DHT22;368;48.698;9.116;2023-05-21T05:52:02;15.20;99.90
770;DHT22;368;48.698;9.116;2023-05-21T05:54:29;15.50;99.90
770;DHT22;368;48.698;9.116;2023-05-21T05:56:57;15.40;99.90
770;DHT22;368;48.698;9.116;2023-05-21T05:59:23;15.80;99.90
770;DHT22;368;48.698;9.116;2023-05-21T06:01:50;15.90;99.90
770;DHT22;368;48.698;9.116;2023-05-21T06:04:17;16.00;99.90
770;DHT22;368;48.698;9.116;2023-05-21T06:06:44;16.00;99.90
770;DHT22;368;48.698;9.116;2023-05-21T06:09:11;16.10;99.90
770;DHT22;368;48.698;9.116;2023-05-21T06:11:38;16.10;99.90
770;DHT22;368;48.698;9.116;2023-05-21T06:14:06;15.90;99.90
770;DHT22;368;48.698;9.116;2023-05-21T06:16:33;16.10;99.90
770;DHT22;368;48.698;9.116;2023-05-21T06:19:01;16.40;99.90
770;DHT22;368;48.698;9.116;2023-05-21T06:21:28;16.40;99.90
770;DHT22;368;48.698;9.116;2023-05-21T06:23:55;16.40;99.90
770;DHT22;368;48.698;9.116;2023-05-21T06:26:22;16.40;99.90
770;DHT22;368;48.698;9.116;2023-05-21T06:28:48;16.50;99.90
770;DHT22;368;48.698;9.116;2023-05-21T06:31:17;16.50;99.90
770;DHT22;368;48.698;9.116;2023-05-21T06:33:46;16.50;99.90
770;DHT22;368;48.698;9.116;2023-05-21T06:36:13;16.50;99.90
770;DHT22;368;48.698;9.116;2023-05-21T06:38:40;16.50;99.90
770;DHT22;368;48.698;9.116;2023-05-21T06:41:08;16.60;99.90
770;DHT22;368;48.698;9.116;2023-05-21T06:43:34;16.90;99.90
770;DHT22;368;48.698;9.116;2023-05-21T06:46:01;16.80;99.90
770;DHT22;368;48.698;9.116;2023-05-21T06:48:29;17.30;99.90
770;DHT22;368;48.698;9.116;2023-05-21T06:50:56;17.80;99.90
770;DHT22;368;48.698;9.116;2023-05-21T06:53:23;18.10;99.90
770;DHT22;368;48.698;9.116;2023-05-21T06:55:50;18.20;99.90
770;DHT22;368;48.698;9.116;2023-05-21T06:58:18;18.40;99.90
770;DHT22;368;48.698;9.116;2023-05-21T07:00:46;18.70;99.90
770;DHT22;368;48.698;9.116;2023-05-21T07:03:13;18.60;99.90
770;DHT22;368;48.698;9.116;2023-05-21T07:05:41;18.90;99.90
770;DHT22;368;48.698;9.116;2023-05-21T07:08:08;19.00;99.90
770;DHT22;368;48.698;9.116;2023-05-21T07:10:35;19.40;99.90
770;DHT22;368;48.698;9.116;2023-05-21T07:13:01;19.40;99.90
770;DHT22;368;48.698;9.116;2023-05-21T07:15:28;19.10;99.90
770;DHT22;368;48.698;9.116;2023-05-21T07:17:55;19.90;99.90
770;DHT22;368;48.698;9.116;2023-05-21T07:20:22;20.40;99.90
770;DHT22;368;48.698;9.116;2023-05-21T07:22:50;21.00;99.90
770;DHT22;368;48.698;9.116;2023-05-21T07:25:17;21.50;99.90
770;DHT22;368;48.698;9.116;2023-05-21T07:27:43;21.70;99.60
770;DHT22;368;48.698;9.116;2023-05-21T07:30:11;21.20;99.90
770;DHT22;368;48.698;9.116;2023-05-21T07:32:37;21.30;99.10
770;DHT22;368;48.698;9.116;2023-05-21T07:35:05;21.50;99.50
770;DHT22;368;48.698;9.116;2023-05-21T07:37:32;22.00;99.90
770;DHT22;368;48.698;9.116;2023-05-21T07:40:00;21.70;98.50
770;DHT22;368;48.698;9.116;2023-05-21T07:42:27;21.60;99.80
770;DHT22;368;48.698;9.116;2023-05-21T07:44:53;21.10;99.90
770;DHT22;368;48.698;9.116;2023-05-21T07:47:20;21.20;99.90
770;DHT22;368;48.698;9.116;2023-05-21T07:49:47;21.80;98.80
770;DHT22;368;48.698;9.116;2023-05-21T07:52:14;21.30;99.20
770;DHT22;368;48.698;9.116;2023-05-21T07:54:41;21.40;98.30
770;DHT22;368;48.698;9.116;2023-05-21T07:57:09;22.10;97.50
770;DHT22;368;48.698;9.116;2023-05-21T07:59:36;22.00;96.90
770;DHT22;368;48.698;9.116;2023-05-21T08:02:03;23.30;95.90
770;DHT22;368;48.698;9.116;2023-05-21T08:04:30;23.50;95.20
770;DHT22;368;48.698;9.116;2023-05-21T08:06:57;24.30;94.50
770;DHT22;368;48.698;9.116;2023-05-21T08:09:24;24.50;93.30
770;DHT22;368;48.698;9.116;2023-05-21T08:11:51;25.30;93.90
770;DHT22;368;48.698;9.116;2023-05-21T08:14:19;25.70;91.70
770;DHT22;368;48.698;9.116;2023-05-21T08:16:46;25.10;90.80
770;DHT22;368;48.698;9.116;2023-05-21T08:19:12;24.90;92.50
770;DHT22;368;48.698;9.116;2023-05-21T08:21:39;25.90;91.60
770;DHT22;368;48.698;9.116;2023-05-21T08:24:06;24.20;91.30
770;DHT22;368;48.698;9.116;2023-05-21T08:26:33;23.70;93.60
770;DHT22;368;48.698;9.116;2023-05-21T08:29:00;24.90;91.90
770;DHT22;368;48.698;9.116;2023-05-21T08:31:29;26.10;90.30
770;DHT22;368;48.698;9.116;2023-05-21T08:33:55;26.10;90.00
770;DHT22;368;48.698;9.116;2023-05-21T08:36:23;26.10;88.30
770;DHT22;368;48.698;9.116;2023-05-21T08:38:50;24.80;87.60
770;DHT22;368;48.698;9.116;2023-05-21T08:41:17;24.50;91.90
770;DHT22;368;48.698;9.116;2023-05-21T08:43:47;26.10;89.40
770;DHT22;368;48.698;9.116;2023-05-21T08:46:16;25.80;89.00
770;DHT22;368;48.698;9.116;2023-05-21T08:48:46;26.70;86.20
770;DHT22;368;48.698;9.116;2023-05-21T08:51:13;27.30;84.30
770;DHT22;368;48.698;9.116;2023-05-21T08:53:40;27.20;82.00
770;DHT22;368;48.698;9.116;2023-05-21T08:56:09;27.30;87.90
770;DHT22;368;48.698;9.116;2023-05-21T08:58:38;26.40;85.70
770;DHT22;368;48.698;9.116;2023-05-21T09:01:07;27.70;84.80
770;DHT22;368;48.698;9.116;2023-05-21T09:03:36;25.60;84.50
770;DHT22;368;48.698;9.116;2023-05-21T09:06:07;26.40;88.40
770;DHT22;368;48.698;9.116;2023-05-21T09:08:37;26.30;89.20
770;DHT22;368;48.698;9.116;2023-05-21T09:11:06;26.60;85.50
770;DHT22;368;48.698;9.116;2023-05-21T09:13:34;27.00;86.80
770;DHT22;368;48.698;9.116;2023-05-21T09:16:01;26.50;86.30
770;DHT22;368;48.698;9.116;2023-05-21T09:18:28;25.60;87.50
770;DHT22;368;48.698;9.116;2023-05-21T09:20:55;25.50;88.40
770;DHT22;368;48.698;9.116;2023-05-21T09:23:23;25.00;90.50
770;DHT22;368;48.698;9.116;2023-05-21T09:25:50;25.40;89.50
770;DHT22;368;48.698;9.116;2023-05-21T09:28:18;25.80;87.40
770;DHT22;368;48.698;9.116;2023-05-21T09:30:46;26.40;86.90
770;DHT22;368;48.698;9.116;2023-05-21T09:33:23;26.60;85.30
770;DHT22;368;48.698;9.116;2023-05-21T09:35:50;27.70;84.70
770;DHT22;368;48.698;9.116;2023-05-21T09:38:17;27.30;82.30
770;DHT22;368;48.698;9.116;2023-05-21T09:40:45;26.90;83.70
770;DHT22;368;48.698;9.116;2023-05-21T09:43:13;25.90;85.60
770;DHT22;368;48.698;9.116;2023-05-21T09:45:50;25.50;88.00
770;DHT22;368;48.698;9.116;2023-05-21T09:48:32;26.40;88.30
770;DHT22;368;48.698;9.116;2023-05-21T09:51:10;26.70;85.50
770;DHT22;368;48.698;9.116;2023-05-21T09:53:48;26.50;85.20
770;DHT22;368;48.698;9.116;2023-05-21T09:56:19;26.70;85.20
770;DHT22;368;48.698;9.116;2023-05-21T09:58:47;27.20;85.60
770;DHT22;368;48.698;9.116;2023-05-21T10:01:18;25.90;84.50
770;DHT22;368;48.698;9.116;2023-05-21T10:03:49;25.80;83.50
770;DHT22;368;48.698;9.116;2023-05-21T10:06:16;25.90;84.90
770;DHT22;368;48.698;9.116;2023-05-21T10:08:44;26.40;85.70
770;DHT22;368;48.698;9.116;2023-05-21T10:11:14;26.40;87.50
770;DHT22;368;48.698;9.116;2023-05-21T10:13:45;27.30;86.30
770;DHT22;368;48.698;9.116;2023-05-21T10:16:14;28.10;83.30
770;DHT22;368;48.698;9.116;2023-05-21T10:18:41;28.10;83.90
770;DHT22;368;48.698;9.116;2023-05-21T10:21:11;28.50;81.90
770;DHT22;368;48.698;9.116;2023-05-21T10:23:38;29.00;81.00
770;DHT22;368;48.698;9.116;2023-05-21T10:26:07;30.00;77.70
770;DHT22;368;48.698;9.116;2023-05-21T10:28:35;28.20;80.50
770;DHT22;368;48.698;9.116;2023-05-21T10:31:04;28.20;82.50
770;DHT22;368;48.698;9.116;2023-05-21T10:33:31;28.10;78.00
770;DHT22;368;48.698;9.116;2023-05-21T10:35:59;28.70;79.60
770;DHT22;368;48.698;9.116;2023-05-21T10:38:28;27.30;83.90
770;DHT22;368;48.698;9.116;2023-05-21T10:40:56;27.10;84.40
770;DHT22;368;48.698;9.116;2023-05-21T10:43:42;28.00;82.60
770;DHT22;368;48.698;9.116;2023-05-21T10:49:14;27.60;80.60
770;DHT22;368;48.698;9.116;2023-05-21T10:51:51;28.00;85.10
770;DHT22;368;48.698;9.116;2023-05-21T10:54:47;28.50;81.80
770;DHT22;368;48.698;9.116;2023-05-21T13:46:40;23.80;86.20
770;DHT22;368;48.698;9.116;2023-05-21T13:49:07;24.40;81.20
770;DHT22;368;48.698;9.116;2023-05-21T13:51:33;24.30;83.20
770;DHT22;368;48.698;9.116;2023-05-21T13:54:00;24.20;82.00
770;DHT22;368;48.698;9.116;2023-05-21T13:56:27;24.10;84.70
770;DHT22;368;48.698;9.116;2023-05-21T13:58:54;24.50;82.60
770;DHT22;368;48.698;9.116;2023-05-21T14:01:21;25.20;80.30
770;DHT22;368;48.698;9.116;2023-05-21T14:03:49;25.60;77.80
770;DHT22;368;48.698;9.116;2023-05-21T14:06:16;25.30;83.20
770;DHT22;368;48.698;9.116;2023-05-21T14:08:42;25.30;83.40
770;DHT22;368;48.698;9.116;2023-05-21T14:11:09;25.50;80.10
770;DHT22;368;48.698;9.116;2023-05-21T14:13:36;25.30;81.00
770;DHT22;368;48.698;9.116;2023-05-21T14:16:03;25.80;82.30
770;DHT22;368;48.698;9.116;2023-05-21T14:18:30;26.30;80.00
770;DHT22;368;48.698;9.116;2023-05-21T14:20:58;26.50;74.60
770;DHT22;368;48.698;9.116;2023-05-21T14:23:25;26.90;76.10
770;DHT22;368;48.698;9.116;2023-05-21T14:25:52;26.30;81.50
770;DHT22;368;48.698;9.116;2023-05-21T14:28:18;26.70;77.90
770;DHT22;368;48.698;9.116;2023-05-21T14:30:45;26.40;75.00
770;DHT22;368;48.698;9.116;2023-05-21T14:33:12;26.60;79.30
770;DHT22;368;48.698;9.116;2023-05-21T14:35:38;26.00;81.70
770;DHT22;368;48.698;9.116;2023-05-21T14:38:09;26.70;80.30
770;DHT22;368;48.698;9.116;2023-05-21T14:40:36;27.30;77.00
770;DHT22;368;48.698;9.116;2023-05-21T14:43:03;27.70;77.10
770;DHT22;368;48.698;9.116;2023-05-21T14:45:30;26.80;76.10
770;DHT22;368;48.698;9.116;2023-05-21T14:47:59;27.40;73.00
770;DHT22;368;48.698;9.116;2023-05-21T14:50:26;27.60;74.80
770;DHT22;368;48.698;9.116;2023-05-21T14:52:53;26.40;72.00
770;DHT22;368;48.698;9.116;2023-05-21T14:55:21;26.30;73.60
770;DHT22;368;48.698;9.116;2023-05-21T14:57:48;26.90;73.40
770;DHT22;368;48.698;9.116;2023-05-21T15:00:15;27.20;73.10
770;DHT22;368;48.698;9.116;2023-05-21T15:02:42;26.30;76.10
770;DHT22;368;48.698;9.116;2023-05-21T15:05:08;26.40;75.90
770;DHT22;368;48.698;9.116;2023-05-21T15:07:35;26.60;74.00
770;DHT22;368;48.698;9.116;2023-05-21T15:10:02;26.00;74.60
770;DHT22;368;48.698;9.116;2023-05-21T15:12:30;26.00;74.00
770;DHT22;368;48.698;9.116;2023-05-21T15:14:57;25.60;74.00
770;DHT22;368;48.698;9.116;2023-05-21T15:17:24;25.80;73.90
770;DHT22;368;48.698;9.116;2023-05-21T15:19:51;25.50;78.00
770;DHT22;368;48.698;9.116;2023-05-21T15:22:17;25.70;77.60
770;DHT22;368;48.698;9.116;2023-05-21T15:24:44;25.80;76.40
770;DHT22;368;48.698;9.116;2023-05-21T15:27:11;26.10;76.10
770;DHT22;368;48.698;9.116;2023-05-21T15:29:39;25.80;76.50
770;DHT22;368;48.698;9.116;2023-05-21T15:32:06;25.70;76.80
770;DHT22;368;48.698;9.116;2023-05-21T15:34:33;25.70;78.50
770;DHT22;368;48.698;9.116;2023-05-21T15:36:59;25.90;76.20
770;DHT22;368;48.698;9.116;2023-05-21T15:39:29;26.00;73.50
770;DHT22;368;48.698;9.116;2023-05-21T15:41:55;25.60;69.00
770;DHT22;368;48.698;9.116;2023-05-21T15:44:23;25.20;74.20
770;DHT22;368;48.698;9.116;2023-05-21T16:00:32;25.00;73.20
770;DHT22;368;48.698;9.116;2023-05-21T16:02:59;25.30;69.40
770;DHT22;368;48.698;9.116;2023-05-21T16:05:26;25.00;70.60
770;DHT22;368;48.698;9.116;2023-05-21T16:07:52;24.70;71.00
770;DHT22;368;48.698;9.116;2023-05-21T16:10:20;24.80;71.70
770;DHT22;368;48.698;9.116;2023-05-21T16:12:47;24.60;72.10
770;DHT22;368;48.698;9.116;2023-05-21T16:15:13;24.40;69.90
770;DHT22;368;48.698;9.116;2023-05-21T16:17:41;24.40;74.40
770;DHT22;368;48.698;9.116;2023-05-21T16:20:09;24.10;74.40
770;DHT22;368;48.698;9.116;2023-05-21T16:22:36;24.00;77.30
770;DHT22;368;48.698;9.116;2023-05-21T16:25:03;24.10;77.20
770;DHT22;368;48.698;9.116;2023-05-21T16:27:29;24.30;74.00
770;DHT22;368;48.698;9.116;2023-05-21T16:29:56;24.60;71.10
770;DHT22;368;48.698;9.116;2023-05-21T16:32:23;24.60;69.60
770;DHT22;368;48.698;9.116;2023-05-21T16:34:51;24.60;69.60
770;DHT22;368;48.698;9.116;2023-05-21T16:37:18;24.40;75.30
770;DHT22;368;48.698;9.116;2023-05-21T16:39:45;24.20;74.60
770;DHT22;368;48.698;9.116;2023-05-21T16:42:12;24.10;78.70
770;DHT22;368;48.698;9.116;2023-05-21T16:44:39;24.20;74.20
770;DHT22;368;48.698;9.116;2023-05-21T16:47:06;24.10;73.00
770;DHT22;368;48.698;9.116;2023-05-21T16:49:33;23.60;78.30
770;DHT22;368;48.698;9.116;2023-05-21T16:52:01;23.60;76.50
770;DHT22;368;48.698;9.116;2023-05-21T16:54:28;23.40;80.00
770;DHT22;368;48.698;9.116;2023-05-21T16:56:55;23.20;78.50
770;DHT22;368;48.698;9.116;2023-05-21T16:59:21;23.30;75.70
770;DHT22;368;48.698;9.116;2023-05-21T17:01:48;23.10;76.60
770;DHT22;368;48.698;9.116;2023-05-21T17:04:15;23.00;80.60
770;DHT22;368;48.698;9.116;2023-05-21T17:17:46;22.80;79.00
770;DHT22;368;48.698;9.116;2023-05-21T17:20:13;22.70;80.50
770;DHT22;368;48.698;9.116;2023-05-21T17:22:40;22.60;80.00
770;DHT22;368;48.698;9.116;2023-05-21T17:25:07;22.70;84.90
770;DHT22;368;48.698;9.116;2023-05-21T17:27:34;22.60;79.80
770;DHT22;368;48.698;9.116;2023-05-21T17:30:01;22.30;84.90
770;DHT22;368;48.698;9.116;2023-05-21T17:32:28;22.20;83.60
770;DHT22;368;48.698;9.116;2023-05-21T17:34:56;22.20;85.00
770;DHT22;368;48.698;9.116;2023-05-21T17:37:23;22.10;86.40
770;DHT22;368;48.698;9.116;2023-05-21T17:39:50;22.00;85.60
770;DHT22;368;48.698;9.116;2023-05-21T17:42:16;22.00;86.10
770;DHT22;368;48.698;9.116;2023-05-21T17:44:43;22.00;89.00
770;DHT22;368;48.698;9.116;2023-05-21T17:47:10;21.90;85.70
770;DHT22;368;48.698;9.116;2023-05-21T17:49:36;21.80;88.30
770;DHT22;368;48.698;9.116;2023-05-21T17:52:06;21.80;86.70
770;DHT22;368;48.698;9.116;2023-05-21T17:54:32;22.00;84.40
770;DHT22;368;48.698;9.116;2023-05-21T17:56:59;21.90;84.70
770;DHT22;368;48.698;9.116;2023-05-21T17:59:26;21.80;90.40
770;DHT22;368;48.698;9.116;2023-05-21T18:01:52;21.50;90.60
770;DHT22;368;48.698;9.116;2023-05-21T18:04:19;21.40;90.40
770;DHT22;368;48.698;9.116;2023-05-21T18:06:46;21.30;91.20
770;DHT22;368;48.698;9.116;2023-05-21T18:09:14;21.30;91.60
770;DHT22;368;48.698;9.116;2023-05-21T18:11:41;21.30;91.90
770;DHT22;368;48.698;9.116;2023-05-21T18:14:08;21.20;92.60
770;DHT22;368;48.698;9.116;2023-05-21T18:16:35;21.00;92.90
770;DHT22;368;48.698;9.116;2023-05-21T18:19:02;21.00;92.70
770;DHT22;368;48.698;9.116;2023-05-21T18:21:31;20.90;92.80
770;DHT22;368;48.698;9.116;2023-05-21T18:23:57;20.80;93.40
770;DHT22;368;48.698;9.116;2023-05-21T18:26:25;20.60;94.10
770;DHT22;368;48.698;9.116;2023-05-21T18:28:54;20.60;95.00
770;DHT22;368;48.698;9.116;2023-05-21T18:31:21;20.50;95.20
770;DHT22;368;48.698;9.116;2023-05-21T18:33:48;20.40;95.50
770;DHT22;368;48.698;9.116;2023-05-21T18:36:14;20.40;95.00
770;DHT22;368;48.698;9.116;2023-05-21T18:38:42;20.30;95.50
770;DHT22;368;48.698;9.116;2023-05-21T18:41:08;20.30;95.70
770;DHT22;368;48.698;9.116;2023-05-21T18:43:36;20.20;96.40
770;DHT22;368;48.698;9.116;2023-05-21T18:46:03;20.00;96.40
770;DHT22;368;48.698;9.116;2023-05-21T18:48:30;20.00;96.50
770;DHT22;368;48.698;9.116;2023-05-21T18:50:57;19.90;97.00
770;DHT22;368;48.698;9.116;2023-05-21T18:53:24;19.80;97.50
770;DHT22;368;48.698;9.116;2023-05-21T18:55:50;19.70;97.40
770;DHT22;368;48.698;9.116;2023-05-21T18:58:17;19.70;97.20
770;DHT22;368;48.698;9.116;2023-05-21T19:00:45;19.60;98.10
770;DHT22;368;48.698;9.116;2023-05-21T19:03:12;19.40;98.90
770;DHT22;368;48.698;9.116;2023-05-21T19:05:39;19.30;99.10
770;DHT22;368;48.698;9.116;2023-05-21T19:08:06;19.20;99.60
770;DHT22;368;48.698;9.116;2023-05-21T19:10:32;18.90;99.90
770;DHT22;368;48.698;9.116;2023-05-21T19:12:59;18.80;99.90
770;DHT22;368;48.698;9.116;2023-05-21T19:15:26;18.80;99.90
770;DHT22;368;48.698;9.116;2023-05-21T19:17:54;18.70;99.90
770;DHT22;368;48.698;9.116;2023-05-21T19:20:22;18.60;99.90
770;DHT22;368;48.698;9.116;2023-05-21T19:22:50;18.50;99.90
770;DHT22;368;48.698;9.116;2023-05-21T19:25:17;18.50;99.90
770;DHT22;368;48.698;9.116;2023-05-21T19:27:44;18.40;99.90
770;DHT22;368;48.698;9.116;2023-05-21T19:30:12;18.50;99.90
770;DHT22;368;48.698;9.116;2023-05-21T19:32:38;18.60;99.90
770;DHT22;368;48.698;9.116;2023-05-21T19:35:07;18.70;99.90
770;DHT22;368;48.698;9.116;2023-05-21T19:37:35;18.70;99.90
770;DHT22;368;48.698;9.116;2023-05-21T19:40:02;18.50;99.90
770;DHT22;368;48.698;9.116;2023-05-21T19:42:30;18.40;99.90
770;DHT22;368;48.698;9.116;2023-05-21T19:44:57;18.50;99.90
770;DHT22;368;48.698;9.116;2023-05-21T19:47:24;18.40;99.90
770;DHT22;368;48.698;9.116;2023-05-21T19:49:51;18.30;99.90
770;DHT22;368;48.698;9.116;2023-05-21T19:52:21;18.30;99.90
770;DHT22;368;48.698;9.116;2023-05-21T19:54:48;18.10;99.90